Check out our new BloomSky Weather System.

Active alerts


No alerts


Thunder radar  blitzortung!


Rain radar more information rain snow radar


Visit our other weather sites:

Template documentation
and downloads

And another site



Weather Underground History page Text

Daily Summary for May 10, 2017 Units:  Metric    English   Both
« Previous Day
Next Day »
Daily Weekly Monthly Yearly Custom
  High: Low: Average:
Temperature: 28.2 °C 21.4 °C 24.6 °C
Dew Point: 22.2 °C 20 °C 21 °C
Humidity: 93 % 68 % 81 %
Wind Speed: 27.4 km/h 0 km/h 6.1 km/h
Wind Gust: 27.4 km/h - -
Wind:- - SE
Pressure: 1015.1 hPa 1012.8 hPa -
Precipitation: 0 mm    
Historical Graphs
 
 
Tabular Data for May 10, 2017
Time Temperature Dew Point Pressure Wind Wind Speed Wind Gust Humidity Rainfall Rate (Hourly)
00:01 23.1 °C 20.2 °C 1015.1 hPa ESE 8 km/h 12.9 km/h 84 % 0 mm
00:06 23.2 °C 20.3 °C 1015.1 hPa ESE 8 km/h 11.3 km/h 84 % 0 mm
00:11 23.1 °C 20.2 °C 1015.1 hPa Calm   12.9 km/h 84 % 0 mm
00:16 23.1 °C 20.4 °C 1015.1 hPa SE 3.2 km/h 12.9 km/h 85 % 0 mm
00:21 23 °C 20.3 °C 1015.1 hPa South 3.2 km/h 12.9 km/h 85 % 0 mm
00:27 23 °C 20.3 °C 1015.1 hPa SE 6.4 km/h 14.5 km/h 85 % 0 mm
00:32 22.9 °C 20.2 °C 1015.1 hPa ESE 8 km/h 14.5 km/h 85 % 0 mm
00:37 22.9 °C 20.4 °C 1015.1 hPa ESE 6.4 km/h 14.5 km/h 86 % 0 mm
00:42 22.9 °C 20.4 °C 1015.1 hPa SE 3.2 km/h 9.7 km/h 86 % 0 mm
00:47 22.9 °C 20.4 °C 1014.8 hPa ESE 8 km/h 9.7 km/h 86 % 0 mm
00:52 22.9 °C 20.4 °C 1014.8 hPa SE 6.4 km/h 9.7 km/h 86 % 0 mm
00:57 22.9 °C 20.4 °C 1014.8 hPa ESE 6.4 km/h 9.7 km/h 86 % 0 mm
01:02 22.9 °C 20.4 °C 1014.8 hPa SE 3.2 km/h 9.7 km/h 86 % 0 mm
01:07 22.8 °C 20.3 °C 1014.8 hPa East 3.2 km/h 9.7 km/h 86 % 0 mm
01:12 22.8 °C 20.5 °C 1014.8 hPa ESE 4.8 km/h 9.7 km/h 87 % 0 mm
01:17 22.7 °C 20.4 °C 1014.4 hPa SE 4.8 km/h 9.7 km/h 87 % 0 mm
01:22 22.7 °C 20.4 °C 1014.4 hPa ESE 4.8 km/h 9.7 km/h 87 % 0 mm
01:27 22.6 °C 20.3 °C 1014.4 hPa SSE 3.2 km/h 9.7 km/h 87 % 0 mm
01:32 22.6 °C 20.5 °C 1014.4 hPa SE 6.4 km/h 8 km/h 88 % 0 mm
01:37 22.5 °C 20.4 °C 1014.4 hPa SE 1.6 km/h 8 km/h 88 % 0 mm
01:42 22.4 °C 20.3 °C 1014.4 hPa SE 4.8 km/h 6.4 km/h 88 % 0 mm
01:47 22.4 °C 20.3 °C 1014.4 hPa ESE 3.2 km/h 6.4 km/h 88 % 0 mm
01:52 22.3 °C 20.4 °C 1014.1 hPa ESE 1.6 km/h 6.4 km/h 89 % 0 mm
01:57 22.2 °C 20.3 °C 1014.1 hPa ESE 1.6 km/h 4.8 km/h 89 % 0 mm
02:02 22.1 °C 20.2 °C 1013.8 hPa Calm   4.8 km/h 89 % 0 mm
02:07 22 °C 20.1 °C 1013.8 hPa Calm   3.2 km/h 89 % 0 mm
02:12 21.9 °C 20.2 °C 1013.8 hPa East 3.2 km/h 3.2 km/h 90 % 0 mm
02:17 21.9 °C 20.2 °C 1013.8 hPa Calm   3.2 km/h 90 % 0 mm
02:22 21.8 °C 20.1 °C 1013.8 hPa SE 1.6 km/h 3.2 km/h 90 % 0 mm
02:27 21.7 °C 20.2 °C 1013.4 hPa Calm   4.8 km/h 91 % 0 mm
02:32 21.7 °C 20.2 °C 1013.4 hPa East 3.2 km/h 4.8 km/h 91 % 0 mm
02:37 21.6 °C 20.1 °C 1013.4 hPa Calm   4.8 km/h 91 % 0 mm
02:42 21.6 °C 20.1 °C 1013.4 hPa SE 3.2 km/h 3.2 km/h 91 % 0 mm
02:47 21.5 °C 20 °C 1013.4 hPa SE 1.6 km/h 3.2 km/h 91 % 0 mm
02:52 21.5 °C 20.1 °C 1013.4 hPa Calm   3.2 km/h 92 % 0 mm
02:57 21.4 °C 20 °C 1013.4 hPa ESE 1.6 km/h 3.2 km/h 92 % 0 mm
03:02 21.4 °C 20 °C 1013.1 hPa SE 3.2 km/h 6.4 km/h 92 % 0 mm
03:07 21.5 °C 20.1 °C 1013.1 hPa ESE 4.8 km/h 8 km/h 92 % 0 mm
03:12 21.5 °C 20.1 °C 1013.1 hPa SE 4.8 km/h 8 km/h 92 % 0 mm
03:17 21.6 °C 20.2 °C 1013.1 hPa SE 1.6 km/h 8 km/h 92 % 0 mm
03:22 21.6 °C 20.2 °C 1013.1 hPa SE 6.4 km/h 8 km/h 92 % 0 mm
03:27 21.6 °C 20.2 °C 1013.1 hPa SE 4.8 km/h 8 km/h 92 % 0 mm
03:32 21.7 °C 20.3 °C 1013.1 hPa SE 4.8 km/h 8 km/h 92 % 0 mm
03:37 21.7 °C 20.3 °C 1013.1 hPa SE 3.2 km/h 12.9 km/h 92 % 0 mm
03:42 21.7 °C 20.3 °C 1013.1 hPa ESE 6.4 km/h 12.9 km/h 92 % 0 mm
03:47 21.8 °C 20.4 °C 1013.1 hPa ESE 4.8 km/h 12.9 km/h 92 % 0 mm
03:52 21.8 °C 20.4 °C 1013.1 hPa SE 3.2 km/h 9.7 km/h 92 % 0 mm
03:53 21.8 °C 20.3 °C 1013.1 hPa ESE 4.8 km/h 9.7 km/h 91 % 0 mm
03:58 21.8 °C 20.3 °C 1012.8 hPa ESE 3.2 km/h 9.7 km/h 91 % 0 mm
03:59 21.8 °C 20.3 °C 1012.8 hPa East 3.2 km/h 9.7 km/h 91 % 0 mm
04:04 21.8 °C 20.3 °C 1013.1 hPa SE 3.2 km/h 9.7 km/h 91 % 0 mm
04:09 21.8 °C 20.3 °C 1012.8 hPa ESE 6.4 km/h 8 km/h 91 % 0 mm
04:14 21.7 °C 20.3 °C 1012.8 hPa ESE 3.2 km/h 8 km/h 92 % 0 mm
04:19 21.7 °C 20.3 °C 1012.8 hPa ESE 3.2 km/h 8 km/h 92 % 0 mm
04:24 21.7 °C 20.3 °C 1012.8 hPa SE 4.8 km/h 11.3 km/h 92 % 0 mm
04:29 21.7 °C 20.3 °C 1012.8 hPa SE 4.8 km/h 11.3 km/h 92 % 0 mm
04:34 21.7 °C 20.3 °C 1012.8 hPa ESE 3.2 km/h 11.3 km/h 92 % 0 mm
04:39 21.7 °C 20.3 °C 1012.8 hPa Calm   9.7 km/h 92 % 0 mm
04:44 21.7 °C 20.3 °C 1012.8 hPa Calm   6.4 km/h 92 % 0 mm
04:49 21.7 °C 20.3 °C 1012.8 hPa ESE 3.2 km/h 6.4 km/h 92 % 0 mm
04:54 21.7 °C 20.3 °C 1012.8 hPa Calm   6.4 km/h 92 % 0 mm
04:59 21.7 °C 20.3 °C 1012.8 hPa ESE 1.6 km/h 6.4 km/h 92 % 0 mm
05:04 21.6 °C 20.2 °C 1012.8 hPa ESE 1.6 km/h 4.8 km/h 92 % 0 mm
05:09 21.6 °C 20.2 °C 1012.8 hPa SE 1.6 km/h 3.2 km/h 92 % 0 mm
05:14 21.5 °C 20.1 °C 1012.8 hPa Calm   4.8 km/h 92 % 0 mm
05:19 21.4 °C 20 °C 1012.8 hPa Calm   4.8 km/h 92 % 0 mm
05:24 21.4 °C 20.2 °C 1012.8 hPa Calm   4.8 km/h 93 % 0 mm
05:29 21.4 °C 20.2 °C 1012.8 hPa Calm   3.2 km/h 93 % 0 mm
05:34 21.4 °C 20.2 °C 1013.1 hPa Calm   3.2 km/h 93 % 0 mm
05:39 21.5 °C 20.3 °C 1012.8 hPa SE 1.6 km/h 3.2 km/h 93 % 0 mm
05:44 21.6 °C 20.4 °C 1012.8 hPa SE 1.6 km/h 6.4 km/h 93 % 0 mm
05:49 21.6 °C 20.4 °C 1012.8 hPa South 3.2 km/h 6.4 km/h 93 % 0 mm
05:55 21.7 °C 20.5 °C 1013.1 hPa Calm   6.4 km/h 93 % 0 mm
06:00 21.7 °C 20.5 °C 1013.1 hPa Calm   3.2 km/h 93 % 0 mm
06:05 21.8 °C 20.6 °C 1013.1 hPa ESE 1.6 km/h 4.8 km/h 93 % 0 mm
06:10 21.9 °C 20.7 °C 1013.1 hPa SE 3.2 km/h 6.4 km/h 93 % 0 mm
06:15 21.9 °C 20.7 °C 1013.1 hPa SE 1.6 km/h 6.4 km/h 93 % 0 mm
06:20 21.9 °C 20.7 °C 1013.1 hPa ESE 3.2 km/h 6.4 km/h 93 % 0 mm
06:25 22 °C 20.8 °C 1013.4 hPa SE 1.6 km/h 6.4 km/h 93 % 0 mm
06:30 22.1 °C 20.7 °C 1013.4 hPa Calm   8 km/h 92 % 0 mm
06:35 22 °C 20.6 °C 1013.4 hPa Calm   8 km/h 92 % 0 mm
06:40 22 °C 20.6 °C 1013.8 hPa ESE 3.2 km/h 8 km/h 92 % 0 mm
06:45 22.1 °C 20.7 °C 1013.8 hPa Calm   4.8 km/h 92 % 0 mm
06:50 22.1 °C 20.7 °C 1013.8 hPa East 3.2 km/h 4.8 km/h 92 % 0 mm
06:55 22.2 °C 20.8 °C 1013.8 hPa ESE 1.6 km/h 4.8 km/h 92 % 0 mm
07:00 22.2 °C 20.8 °C 1013.8 hPa SE 3.2 km/h 4.8 km/h 92 % 0 mm
07:05 22.3 °C 20.9 °C 1013.8 hPa Calm   6.4 km/h 92 % 0 mm
07:10 22.3 °C 20.9 °C 1013.8 hPa ESE 1.6 km/h 6.4 km/h 92 % 0 mm
07:15 22.4 °C 21 °C 1013.8 hPa Calm   6.4 km/h 92 % 0 mm
07:20 22.4 °C 21 °C 1013.8 hPa Calm   4.8 km/h 92 % 0 mm
07:25 22.5 °C 21.1 °C 1014.1 hPa ENE 3.2 km/h 6.4 km/h 92 % 0 mm
07:30 22.6 °C 21.1 °C 1014.1 hPa ESE 3.2 km/h 6.4 km/h 91 % 0 mm
07:35 22.6 °C 21.1 °C 1014.1 hPa East 1.6 km/h 6.4 km/h 91 % 0 mm
07:40 22.7 °C 21.2 °C 1014.1 hPa ESE 1.6 km/h 4.8 km/h 91 % 0 mm
07:45 22.8 °C 21.3 °C 1014.4 hPa Calm   4.8 km/h 91 % 0 mm
07:50 22.9 °C 21.2 °C 1014.4 hPa SE 1.6 km/h 6.4 km/h 90 % 0 mm
07:55 23 °C 21.3 °C 1014.4 hPa ESE 4.8 km/h 6.4 km/h 90 % 0 mm
08:00 23.1 °C 21.4 °C 1014.4 hPa ESE 4.8 km/h 6.4 km/h 90 % 0 mm
08:05 23.1 °C 21.4 °C 1014.4 hPa Calm   6.4 km/h 90 % 0 mm
08:10 23.2 °C 21.5 °C 1014.4 hPa SE 4.8 km/h 6.4 km/h 90 % 0 mm
08:15 23.3 °C 21.4 °C 1014.4 hPa East 4.8 km/h 9.7 km/h 89 % 0 mm
08:16 23.3 °C 21.4 °C 1014.4 hPa SE 1.6 km/h 9.7 km/h 89 % 0 mm
08:21 23.4 °C 21.5 °C 1014.4 hPa SE 4.8 km/h 9.7 km/h 89 % 0 mm
08:22 23.4 °C 21.5 °C 1014.4 hPa SE 8 km/h 9.7 km/h 89 % 0 mm
08:27 23.6 °C 21.7 °C 1014.8 hPa East 6.4 km/h 14.5 km/h 89 % 0 mm
08:32 23.7 °C 21.6 °C 1014.8 hPa SSW 4.8 km/h 14.5 km/h 88 % 0 mm
08:37 23.8 °C 21.7 °C 1014.4 hPa East 4.8 km/h 14.5 km/h 88 % 0 mm
08:42 23.8 °C 21.5 °C 1014.8 hPa SSE 3.2 km/h 11.3 km/h 87 % 0 mm
08:47 23.9 °C 21.6 °C 1014.8 hPa South 4.8 km/h 12.9 km/h 87 % 0 mm
08:52 24.1 °C 21.6 °C 1014.8 hPa SE 6.4 km/h 12.9 km/h 86 % 0 mm
08:57 24.1 °C 21.6 °C 1014.8 hPa SSE 3.2 km/h 12.9 km/h 86 % 0 mm
09:02 24.2 °C 21.5 °C 1014.8 hPa SE 3.2 km/h 12.9 km/h 85 % 0 mm
09:07 24.3 °C 21.6 °C 1014.8 hPa SSE 8 km/h 14.5 km/h 85 % 0 mm
09:12 24.3 °C 21.6 °C 1014.4 hPa ESE 6.4 km/h 14.5 km/h 85 % 0 mm
09:17 24.4 °C 21.5 °C 1014.4 hPa South 6.4 km/h 14.5 km/h 84 % 0 mm
09:22 24.5 °C 21.4 °C 1014.4 hPa ESE 11.3 km/h 20.9 km/h 83 % 0 mm
09:27 24.6 °C 21.5 °C 1014.4 hPa SSW 9.7 km/h 20.9 km/h 83 % 0 mm
09:32 24.7 °C 21.4 °C 1014.4 hPa South 17.7 km/h 20.9 km/h 82 % 0 mm
09:37 24.7 °C 21.2 °C 1014.4 hPa ESE 9.7 km/h 22.5 km/h 81 % 0 mm
09:43 24.9 °C 21.2 °C 1014.8 hPa South 8 km/h 22.5 km/h 80 % 0 mm
09:48 25 °C 21.1 °C 1014.8 hPa ESE 14.5 km/h 22.5 km/h 79 % 0 mm
09:53 25.1 °C 21.2 °C 1014.8 hPa South 6.4 km/h 17.7 km/h 79 % 0 mm
09:58 25.2 °C 21.1 °C 1014.8 hPa South 6.4 km/h 17.7 km/h 78 % 0 mm
10:03 25.2 °C 21.1 °C 1014.8 hPa SE 12.9 km/h 17.7 km/h 78 % 0 mm
10:08 25.3 °C 21.2 °C 1014.8 hPa South 8 km/h 17.7 km/h 78 % 0 mm
10:13 25.3 °C 21.2 °C 1014.8 hPa East 12.9 km/h 19.3 km/h 78 % 0 mm
10:18 25.4 °C 21.3 °C 1014.8 hPa SE 9.7 km/h 19.3 km/h 78 % 0 mm
10:23 25.4 °C 21.1 °C 1014.8 hPa SSE 6.4 km/h 19.3 km/h 77 % 0 mm
10:28 25.4 °C 21.3 °C 1014.8 hPa SE 4.8 km/h 19.3 km/h 78 % 0 mm
10:33 25.5 °C 21.4 °C 1014.8 hPa ESE 8 km/h 19.3 km/h 78 % 0 mm
10:38 25.6 °C 21.5 °C 1014.8 hPa SSE 6.4 km/h 17.7 km/h 78 % 0 mm
10:43 25.7 °C 21.4 °C 1014.8 hPa ESE 14.5 km/h 19.3 km/h 77 % 0 mm
10:48 25.8 °C 21.2 °C 1015.1 hPa SE 4.8 km/h 19.3 km/h 76 % 0 mm
10:53 25.8 °C 21.2 °C 1014.8 hPa SSE 4.8 km/h 19.3 km/h 76 % 0 mm
10:54 25.8 °C 21.2 °C 1014.8 hPa SE 6.4 km/h 19.3 km/h 76 % 0 mm
10:59 25.8 °C 21.2 °C 1014.8 hPa SE 12.9 km/h 16.1 km/h 76 % 0 mm
11:04 25.9 °C 21.3 °C 1014.8 hPa SSE 6.4 km/h 17.7 km/h 76 % 0 mm
11:09 26.1 °C 21.3 °C 1015.1 hPa SE 11.3 km/h 17.7 km/h 75 % 0 mm
11:14 26 °C 21.2 °C 1015.1 hPa SW 8 km/h 17.7 km/h 75 % 0 mm
11:19 25.9 °C 21.3 °C 1015.1 hPa ESE 8 km/h 17.7 km/h 76 % 0 mm
11:24 25.8 °C 21.2 °C 1015.1 hPa SSE 4.8 km/h 17.7 km/h 76 % 0 mm
11:29 25.9 °C 21.3 °C 1015.1 hPa SE 6.4 km/h 16.1 km/h 76 % 0 mm
11:34 26 °C 21.4 °C 1015.1 hPa SE 4.8 km/h 14.5 km/h 76 % 0 mm
11:39 26 °C 21.2 °C 1014.8 hPa SSE 6.4 km/h 17.7 km/h 75 % 0 mm
11:44 26 °C 21.4 °C 1014.8 hPa SE 6.4 km/h 17.7 km/h 76 % 0 mm
11:49 25.9 °C 21.1 °C 1014.8 hPa ESE 11.3 km/h 17.7 km/h 75 % 0 mm
11:50 25.9 °C 21.1 °C 1014.8 hPa SE 11.3 km/h 17.7 km/h 75 % 0 mm
11:55 25.9 °C 21.1 °C 1014.8 hPa SE 6.4 km/h 19.3 km/h 75 % 0 mm
12:00 26 °C 21.2 °C 1014.4 hPa ESE 9.7 km/h 19.3 km/h 75 % 0 mm
12:05 26.2 °C 21.4 °C 1014.8 hPa SE 8 km/h 19.3 km/h 75 % 0 mm
12:10 26.4 °C 21.6 °C 1014.8 hPa SSE 3.2 km/h 14.5 km/h 75 % 0 mm
12:16 26.8 °C 21.6 °C 1014.4 hPa SE 9.7 km/h 19.3 km/h 73 % 0 mm
12:21 26.9 °C 21.4 °C 1014.4 hPa SE 6.4 km/h 19.3 km/h 72 % 0 mm
12:26 26.9 °C 21.2 °C 1014.8 hPa SSE 19.3 km/h 24.1 km/h 71 % 0 mm
12:31 26.7 °C 21.5 °C 1014.4 hPa SSE 17.7 km/h 27.4 km/h 73 % 0 mm
12:36 26.8 °C 21.8 °C 1014.4 hPa ESE 17.7 km/h 27.4 km/h 74 % 0 mm
12:41 27.1 °C 21.8 °C 1014.4 hPa SSE 6.4 km/h 27.4 km/h 73 % 0 mm
12:46 27.6 °C 22.1 °C 1014.4 hPa SE 9.7 km/h 20.9 km/h 72 % 0 mm
12:51 27.6 °C 21.6 °C 1014.4 hPa ESE 9.7 km/h 22.5 km/h 70 % 0 mm
12:56 27.7 °C 21.7 °C 1014.4 hPa East 8 km/h 22.5 km/h 70 % 0 mm
13:01 27.9 °C 21.9 °C 1014.4 hPa ESE 11.3 km/h 22.5 km/h 70 % 0 mm
13:06 28.1 °C 21.9 °C 1014.1 hPa SE 17.7 km/h 17.7 km/h 69 % 0 mm
13:11 28.1 °C 21.9 °C 1014.1 hPa SE 6.4 km/h 27.4 km/h 69 % 0 mm
13:16 27.9 °C 21.4 °C 1014.4 hPa ESE 8 km/h 27.4 km/h 68 % 0 mm
13:21 27.6 °C 21.6 °C 1014.4 hPa ESE 8 km/h 27.4 km/h 70 % 0 mm
13:26 27.2 °C 21.7 °C 1014.4 hPa SSE 12.9 km/h 24.1 km/h 72 % 0 mm
13:31 27 °C 21.7 °C 1014.4 hPa SE 6.4 km/h 24.1 km/h 73 % 0 mm
13:36 26.8 °C 21.8 °C 1014.4 hPa SE 6.4 km/h 24.1 km/h 74 % 0 mm
13:41 26.7 °C 21.7 °C 1014.4 hPa ESE 14.5 km/h 19.3 km/h 74 % 0 mm
13:46 26.6 °C 21.8 °C 1014.4 hPa East 8 km/h 20.9 km/h 75 % 0 mm
13:51 26.5 °C 21.7 °C 1014.4 hPa East 8 km/h 20.9 km/h 75 % 0 mm
13:56 26.5 °C 21.9 °C 1014.4 hPa ENE 14.5 km/h 20.9 km/h 76 % 0 mm
14:01 26.4 °C 21.8 °C 1014.4 hPa SE 4.8 km/h 22.5 km/h 76 % 0 mm
14:06 26.4 °C 21.8 °C 1014.4 hPa East 9.7 km/h 24.1 km/h 76 % 0 mm
14:11 26.8 °C 22.2 °C 1014.4 hPa East 27.4 km/h 27.4 km/h 76 % 0 mm
14:16 26.9 °C 21.9 °C 1014.4 hPa SE 3.2 km/h 27.4 km/h 74 % 0 mm
14:21 26.9 °C 21.9 °C 1014.4 hPa SSW 4.8 km/h 27.4 km/h 74 % 0 mm
14:26 27 °C 22 °C 1014.4 hPa East 12.9 km/h 27.4 km/h 74 % 0 mm
14:31 26.9 °C 21.6 °C 1014.4 hPa East 9.7 km/h 24.1 km/h 73 % 0 mm
14:36 26.9 °C 22.1 °C 1014.1 hPa ESE 11.3 km/h 25.7 km/h 75 % 0 mm
14:41 27 °C 21.7 °C 1014.1 hPa SSE 4.8 km/h 25.7 km/h 73 % 0 mm
14:46 26.9 °C 21.9 °C 1014.1 hPa SE 8 km/h 25.7 km/h 74 % 0 mm
14:47 26.9 °C 22.1 °C 1014.1 hPa SE 6.4 km/h 25.7 km/h 75 % 0 mm
14:52 27.1 °C 22.1 °C 1014.1 hPa ESE 14.5 km/h 22.5 km/h 74 % 0 mm
14:57 27.2 °C 22.2 °C 1014.1 hPa SE 11.3 km/h 20.9 km/h 74 % 0 mm
15:02 27.3 °C 22 °C 1014.1 hPa SSE 6.4 km/h 20.9 km/h 73 % 0 mm
15:07 27.4 °C 21.9 °C 1013.8 hPa SSE 6.4 km/h 20.9 km/h 72 % 0 mm
15:12 27.5 °C 22.2 °C 1013.8 hPa SSE 8 km/h 20.9 km/h 73 % 0 mm
15:17 27.7 °C 22 °C 1013.8 hPa SSE 4.8 km/h 19.3 km/h 71 % 0 mm
15:22 27.8 °C 21.8 °C 1013.8 hPa East 11.3 km/h 19.3 km/h 70 % 0 mm
15:27 27.9 °C 21.9 °C 1013.8 hPa SSE 8 km/h 19.3 km/h 70 % 0 mm
15:32 28.1 °C 21.9 °C 1013.8 hPa SW 3.2 km/h 19.3 km/h 69 % 0 mm
15:37 28.1 °C 22.1 °C 1013.4 hPa ESE 11.3 km/h 25.7 km/h 70 % 0 mm
15:42 28.1 °C 21.6 °C 1013.4 hPa East 3.2 km/h 25.7 km/h 68 % 0 mm
15:47 28 °C 21.8 °C 1013.4 hPa SE 6.4 km/h 25.7 km/h 69 % 0 mm
15:52 28.2 °C 22 °C 1013.4 hPa ESE 4.8 km/h 20.9 km/h 69 % 0 mm
15:57 28.1 °C 21.9 °C 1013.4 hPa ESE 11.3 km/h 20.9 km/h 69 % 0 mm
16:02 27.8 °C 21.8 °C 1013.4 hPa ESE 14.5 km/h 22.5 km/h 70 % 0 mm
16:07 27.7 °C 21.7 °C 1013.4 hPa ESE 14.5 km/h 22.5 km/h 70 % 0 mm
16:12 27.5 °C 21.5 °C 1013.4 hPa SE 4.8 km/h 22.5 km/h 70 % 0 mm
16:17 27.5 °C 21.8 °C 1013.4 hPa SSE 8 km/h 22.5 km/h 71 % 0 mm
16:22 27.4 °C 21.7 °C 1013.4 hPa ESE 6.4 km/h 22.5 km/h 71 % 0 mm
16:27 27.7 °C 22 °C 1013.4 hPa SSE 11.3 km/h 22.5 km/h 71 % 0 mm
16:32 27.8 °C 21.8 °C 1013.4 hPa ESE 11.3 km/h 20.9 km/h 70 % 0 mm
16:37 27.7 °C 21.7 °C 1013.4 hPa South 11.3 km/h 20.9 km/h 70 % 0 mm
16:42 27.4 °C 21.7 °C 1013.4 hPa ESE 9.7 km/h 20.9 km/h 71 % 0 mm
16:47 27.3 °C 21.6 °C 1013.1 hPa East 12.9 km/h 19.3 km/h 71 % 0 mm
16:52 27.3 °C 21.6 °C 1013.1 hPa ESE 11.3 km/h 27.4 km/h 71 % 0 mm
16:57 27.3 °C 21.6 °C 1013.1 hPa ESE 11.3 km/h 27.4 km/h 71 % 0 mm
17:02 27.3 °C 21.3 °C 1013.1 hPa SE 4.8 km/h 27.4 km/h 70 % 0 mm
17:07 27.2 °C 21.5 °C 1013.1 hPa ENE 9.7 km/h 25.7 km/h 71 % 0 mm
17:12 27.3 °C 21.3 °C 1013.4 hPa SE 9.7 km/h 25.7 km/h 70 % 0 mm
17:17 27.3 °C 21.6 °C 1013.4 hPa SE 6.4 km/h 20.9 km/h 71 % 0 mm
17:22 27.3 °C 21.6 °C 1013.1 hPa SE 9.7 km/h 17.7 km/h 71 % 0 mm
17:27 27.3 °C 21.6 °C 1013.4 hPa ESE 8 km/h 19.3 km/h 71 % 0 mm
17:32 27.2 °C 21.5 °C 1013.4 hPa SSW 9.7 km/h 19.3 km/h 71 % 0 mm
17:37 27.3 °C 21.8 °C 1013.4 hPa ESE 9.7 km/h 20.9 km/h 72 % 0 mm
17:42 27.3 °C 21.6 °C 1013.4 hPa SE 11.3 km/h 20.9 km/h 71 % 0 mm
17:47 27.1 °C 21.2 °C 1013.4 hPa ESE 11.3 km/h 24.1 km/h 70 % 0 mm
17:48 27.1 °C 21.2 °C 1013.4 hPa SE 11.3 km/h 24.1 km/h 70 % 0 mm
17:53 27 °C 21.5 °C 1013.4 hPa East 9.7 km/h 24.1 km/h 72 % 0 mm
17:58 26.9 °C 21.4 °C 1013.4 hPa ESE 8 km/h 24.1 km/h 72 % 0 mm
18:03 26.9 °C 21.4 °C 1013.4 hPa SE 6.4 km/h 19.3 km/h 72 % 0 mm
18:08 26.9 °C 21.4 °C 1013.1 hPa SSE 4.8 km/h 19.3 km/h 72 % 0 mm
18:13 26.8 °C 21.3 °C 1013.1 hPa SE 4.8 km/h 19.3 km/h 72 % 0 mm
18:18 26.8 °C 21.1 °C 1013.1 hPa ESE 9.7 km/h 16.1 km/h 71 % 0 mm
18:23 26.8 °C 20.9 °C 1013.1 hPa ENE 6.4 km/h 20.9 km/h 70 % 0 mm
18:28 26.8 °C 21.1 °C 1013.1 hPa ENE 16.1 km/h 20.9 km/h 71 % 0 mm
18:33 26.8 °C 21.3 °C 1013.1 hPa SSW 1.6 km/h 20.9 km/h 72 % 0 mm
18:38 26.7 °C 21.2 °C 1013.4 hPa SE 9.7 km/h 19.3 km/h 72 % 0 mm
18:43 26.8 °C 21.3 °C 1013.1 hPa ESE 14.5 km/h 16.1 km/h 72 % 0 mm
18:48 26.7 °C 21.2 °C 1013.1 hPa SE 6.4 km/h 17.7 km/h 72 % 0 mm
18:53 26.7 °C 20.8 °C 1013.1 hPa SSE 8 km/h 19.3 km/h 70 % 0 mm
18:58 26.6 °C 20.9 °C 1013.1 hPa SE 9.7 km/h 20.9 km/h 71 % 0 mm
19:03 26.4 °C 20.7 °C 1013.1 hPa SE 11.3 km/h 20.9 km/h 71 % 0 mm
19:08 26.4 °C 20.7 °C 1013.1 hPa SSE 9.7 km/h 20.9 km/h 71 % 0 mm
19:13 26.4 °C 20.7 °C 1013.1 hPa SE 6.4 km/h 20.9 km/h 71 % 0 mm
19:18 26.4 °C 20.7 °C 1013.1 hPa SE 12.9 km/h 20.9 km/h 71 % 0 mm
19:23 26.3 °C 20.8 °C 1013.1 hPa ESE 11.3 km/h 14.5 km/h 72 % 0 mm
19:28 26.3 °C 20.8 °C 1013.1 hPa SE 6.4 km/h 16.1 km/h 72 % 0 mm
19:33 26.2 °C 20.7 °C 1013.1 hPa ESE 8 km/h 16.1 km/h 72 % 0 mm
19:39 26.2 °C 21 °C 1013.1 hPa ESE 6.4 km/h 16.1 km/h 73 % 0 mm
19:44 26.1 °C 20.9 °C 1013.1 hPa SE 3.2 km/h 16.1 km/h 73 % 0 mm
19:49 26 °C 20.8 °C 1013.1 hPa SE 4.8 km/h 16.1 km/h 73 % 0 mm
19:54 26 °C 20.8 °C 1013.1 hPa SE 11.3 km/h 16.1 km/h 73 % 0 mm
19:59 25.9 °C 20.7 °C 1013.1 hPa SSE 8 km/h 17.7 km/h 73 % 0 mm
20:04 25.8 °C 20.8 °C 1013.4 hPa SSE 6.4 km/h 17.7 km/h 74 % 0 mm
20:09 25.7 °C 20.7 °C 1013.4 hPa SE 6.4 km/h 17.7 km/h 74 % 0 mm
20:14 25.6 °C 20.8 °C 1013.4 hPa SE 6.4 km/h 16.1 km/h 75 % 0 mm
20:19 25.6 °C 20.8 °C 1013.4 hPa SE 3.2 km/h 16.1 km/h 75 % 0 mm
20:24 25.6 °C 20.8 °C 1013.4 hPa SSE 4.8 km/h 14.5 km/h 75 % 0 mm
20:29 25.5 °C 21 °C 1013.8 hPa SE 1.6 km/h 16.1 km/h 76 % 0 mm
20:34 25.4 °C 20.9 °C 1013.8 hPa SSE 6.4 km/h 16.1 km/h 76 % 0 mm
20:39 25.3 °C 20.8 °C 1013.8 hPa South 4.8 km/h 16.1 km/h 76 % 0 mm
20:44 25.3 °C 21 °C 1013.8 hPa SSE 6.4 km/h 17.7 km/h 77 % 0 mm
20:49 25.2 °C 20.9 °C 1013.8 hPa ESE 8 km/h 17.7 km/h 77 % 0 mm
20:54 25.1 °C 20.8 °C 1013.8 hPa SE 6.4 km/h 17.7 km/h 77 % 0 mm
20:59 25.1 °C 20.8 °C 1013.8 hPa SSE 9.7 km/h 14.5 km/h 77 % 0 mm
21:04 25 °C 20.7 °C 1013.8 hPa South 6.4 km/h 16.1 km/h 77 % 0 mm
21:09 24.9 °C 20.4 °C 1013.8 hPa East 4.8 km/h 16.1 km/h 76 % 0 mm
21:14 24.8 °C 20.3 °C 1013.8 hPa SE 12.9 km/h 16.1 km/h 76 % 0 mm
21:19 24.7 °C 20.2 °C 1013.8 hPa ESE 9.7 km/h 16.1 km/h 76 % 0 mm
21:24 24.7 °C 20.2 °C 1013.8 hPa South 8 km/h 14.5 km/h 76 % 0 mm
21:29 24.7 °C 20.2 °C 1013.8 hPa SSE 4.8 km/h 14.5 km/h 76 % 0 mm
21:34 24.6 °C 20.3 °C 1013.8 hPa SE 9.7 km/h 17.7 km/h 77 % 0 mm
21:39 24.6 °C 20.5 °C 1013.8 hPa SE 6.4 km/h 17.7 km/h 78 % 0 mm
21:44 24.5 °C 20.4 °C 1013.8 hPa SE 6.4 km/h 17.7 km/h 78 % 0 mm
21:49 24.4 °C 20.5 °C 1013.8 hPa SE 4.8 km/h 16.1 km/h 79 % 0 mm
21:54 24.4 °C 20.5 °C 1013.8 hPa Calm   16.1 km/h 79 % 0 mm
21:59 24.3 °C 20.6 °C 1014.1 hPa South 4.8 km/h 14.5 km/h 80 % 0 mm
22:04 24.2 °C 20.7 °C 1014.1 hPa SE 1.6 km/h 11.3 km/h 81 % 0 mm
22:09 24.2 °C 20.7 °C 1014.1 hPa SSE 6.4 km/h 12.9 km/h 81 % 0 mm
22:14 24.1 °C 20.8 °C 1014.1 hPa South 3.2 km/h 12.9 km/h 82 % 0 mm
22:19 24.1 °C 20.8 °C 1014.1 hPa SSE 6.4 km/h 12.9 km/h 82 % 0 mm
22:24 24 °C 20.9 °C 1014.4 hPa SSE 6.4 km/h 9.7 km/h 83 % 0 mm
22:29 23.9 °C 21 °C 1014.1 hPa SSE 1.6 km/h 8 km/h 84 % 0 mm
22:34 23.9 °C 21 °C 1014.4 hPa Calm   8 km/h 84 % 0 mm
22:39 23.8 °C 20.9 °C 1014.4 hPa South 1.6 km/h 8 km/h 84 % 0 mm
22:44 23.8 °C 21.1 °C 1014.4 hPa SE 1.6 km/h 8 km/h 85 % 0 mm
22:49 23.8 °C 21.1 °C 1014.4 hPa SSW 3.2 km/h 4.8 km/h 85 % 0 mm
22:54 23.8 °C 21.1 °C 1014.4 hPa SE 4.8 km/h 6.4 km/h 85 % 0 mm
22:59 23.7 °C 21 °C 1014.4 hPa SSE 4.8 km/h 6.4 km/h 85 % 0 mm
23:04 23.7 °C 21.2 °C 1014.4 hPa East 6.4 km/h 8 km/h 86 % 0 mm
23:13 23.7 °C 21.2 °C 1014.4 hPa SE 1.6 km/h 8 km/h 86 % 0 mm
23:18 23.8 °C 21.3 °C 1014.4 hPa SE 1.6 km/h 8 km/h 86 % 0 mm
23:23 23.7 °C 21.2 °C 1014.8 hPa ESE 3.2 km/h 8 km/h 86 % 0 mm
23:28 23.7 °C 21.4 °C 1014.4 hPa ESE 3.2 km/h 8 km/h 87 % 0 mm
23:35 23.6 °C 21.3 °C 1014.4 hPa ESE 4.8 km/h 6.4 km/h 87 % 0 mm
23:40 23.6 °C 21.3 °C 1014.4 hPa ESE 3.2 km/h 8 km/h 87 % 0 mm
23:47 23.6 °C 21.3 °C 1014.4 hPa SE 3.2 km/h 8 km/h 87 % 0 mm
23:52 23.6 °C 21.5 °C 1014.4 hPa SE 6.4 km/h 9.7 km/h 88 % 0 mm
23:56 23.6 °C 21.5 °C 1014.4 hPa SSE 4.8 km/h 9.7 km/h 88 % 0 mm
Spring, Texas: Villages of Bridgestone
Compliments of Weather Underground - 2.75 mb

Script developed by  Jim McMurry - jmcmurry@mwt.net Adapted for the template by  Wim van der Kuil - Leuven-Template.eu

You find our weather info also at:

UK Metoffice

WeatherCloud

Weather Underground

Mid-South Weather Network

AWEKAS

Citizen Weather Observer Program (CWOP)

HAMweather, WeatherForYou, PWS Weather

Equipment we use:

Weather-station
Davis Vantage Vue

Weather-program
Meteohub

Weather-server
Debian 7.9 x86 (Guest)

Provider
DreamHost

Davis Vantage Vue

Meteohub

Debian 7.9 x86 (Guest)

DreamHost